sensor_id;sensor_type;location;lat;lon;timestamp;P1;durP1;ratioP1;P2;durP2;ratioP2
70663;SDS011;58237;57.996;56.290;2023-02-15T00:00:49;6.78;;;2.75;;
70663;SDS011;58237;57.996;56.290;2023-02-15T00:03:15;7.53;;;2.70;;
70663;SDS011;58237;57.996;56.290;2023-02-15T00:05:41;7.47;;;2.33;;
70663;SDS011;58237;57.996;56.290;2023-02-15T00:08:06;11.13;;;3.10;;
70663;SDS011;58237;57.996;56.290;2023-02-15T00:10:31;6.30;;;2.55;;
70663;SDS011;58237;57.996;56.290;2023-02-15T00:12:57;7.38;;;2.85;;
70663;SDS011;58237;57.996;56.290;2023-02-15T00:15:22;5.47;;;1.98;;
70663;SDS011;58237;57.996;56.290;2023-02-15T00:17:47;8.60;;;3.13;;
70663;SDS011;58237;57.996;56.290;2023-02-15T00:20:13;5.90;;;2.20;;
70663;SDS011;58237;57.996;56.290;2023-02-15T00:22:38;6.00;;;2.72;;
70663;SDS011;58237;57.996;56.290;2023-02-15T00:25:03;7.22;;;2.53;;
70663;SDS011;58237;57.996;56.290;2023-02-15T00:27:29;7.95;;;2.63;;
70663;SDS011;58237;57.996;56.290;2023-02-15T00:29:54;7.13;;;2.55;;
70663;SDS011;58237;57.996;56.290;2023-02-15T00:32:19;7.20;;;3.03;;
70663;SDS011;58237;57.996;56.290;2023-02-15T00:34:45;8.32;;;2.60;;
70663;SDS011;58237;57.996;56.290;2023-02-15T00:37:10;7.65;;;3.30;;
70663;SDS011;58237;57.996;56.290;2023-02-15T00:39:35;7.50;;;3.42;;
70663;SDS011;58237;57.996;56.290;2023-02-15T00:42:01;6.38;;;2.50;;
70663;SDS011;58237;57.996;56.290;2023-02-15T00:44:26;8.95;;;3.28;;
70663;SDS011;58237;57.996;56.290;2023-02-15T00:46:51;5.50;;;2.42;;
70663;SDS011;58237;57.996;56.290;2023-02-15T00:49:17;8.65;;;2.83;;
70663;SDS011;58237;57.996;56.290;2023-02-15T00:51:42;6.63;;;2.75;;
70663;SDS011;58237;57.996;56.290;2023-02-15T00:54:07;5.88;;;2.47;;
70663;SDS011;58237;57.996;56.290;2023-02-15T00:56:33;8.80;;;2.80;;
70663;SDS011;58237;57.996;56.290;2023-02-15T00:58:58;8.30;;;2.95;;
70663;SDS011;58237;57.996;56.290;2023-02-15T01:01:23;7.93;;;2.75;;
70663;SDS011;58237;57.996;56.290;2023-02-15T01:03:49;5.47;;;1.83;;
70663;SDS011;58237;57.996;56.290;2023-02-15T01:06:15;5.22;;;1.90;;
70663;SDS011;58237;57.996;56.290;2023-02-15T01:08:40;6.25;;;2.33;;
70663;SDS011;58237;57.996;56.290;2023-02-15T01:11:07;3.75;;;1.40;;
70663;SDS011;58237;57.996;56.290;2023-02-15T01:13:32;7.10;;;1.90;;
70663;SDS011;58237;57.996;56.290;2023-02-15T01:15:58;6.72;;;1.88;;
70663;SDS011;58237;57.996;56.290;2023-02-15T01:18:23;5.75;;;2.28;;
70663;SDS011;58237;57.996;56.290;2023-02-15T01:20:48;7.10;;;2.75;;
70663;SDS011;58237;57.996;56.290;2023-02-15T01:23:14;6.75;;;2.20;;
70663;SDS011;58237;57.996;56.290;2023-02-15T01:25:40;9.30;;;3.00;;
70663;SDS011;58237;57.996;56.290;2023-02-15T01:28:05;7.50;;;2.97;;
70663;SDS011;58237;57.996;56.290;2023-02-15T01:30:31;5.95;;;2.10;;
70663;SDS011;58237;57.996;56.290;2023-02-15T01:32:57;6.70;;;2.70;;
70663;SDS011;58237;57.996;56.290;2023-02-15T01:35:22;7.82;;;2.78;;
70663;SDS011;58237;57.996;56.290;2023-02-15T01:37:47;7.57;;;2.88;;
70663;SDS011;58237;57.996;56.290;2023-02-15T01:40:15;8.98;;;3.13;;
70663;SDS011;58237;57.996;56.290;2023-02-15T01:42:40;8.35;;;3.13;;
70663;SDS011;58237;57.996;56.290;2023-02-15T01:45:24;7.63;;;2.58;;
70663;SDS011;58237;57.996;56.290;2023-02-15T01:48:03;7.60;;;2.55;;
70663;SDS011;58237;57.996;56.290;2023-02-15T01:50:30;7.97;;;2.92;;
70663;SDS011;58237;57.996;56.290;2023-02-15T01:55:22;8.02;;;2.70;;
70663;SDS011;58237;57.996;56.290;2023-02-15T01:57:48;9.10;;;2.38;;
70663;SDS011;58237;57.996;56.290;2023-02-15T02:00:14;6.38;;;2.45;;
70663;SDS011;58237;57.996;56.290;2023-02-15T02:02:40;6.07;;;2.33;;
70663;SDS011;58237;57.996;56.290;2023-02-15T02:05:07;6.93;;;2.20;;
70663;SDS011;58237;57.996;56.290;2023-02-15T02:07:33;7.90;;;2.88;;
70663;SDS011;58237;57.996;56.290;2023-02-15T02:09:59;7.03;;;2.25;;
70663;SDS011;58237;57.996;56.290;2023-02-15T02:12:25;8.95;;;2.58;;
70663;SDS011;58237;57.996;56.290;2023-02-15T02:14:51;7.95;;;2.30;;
70663;SDS011;58237;57.996;56.290;2023-02-15T02:19:52;6.93;;;2.33;;
70663;SDS011;58237;57.996;56.290;2023-02-15T02:25:14;4.60;;;1.77;;
70663;SDS011;58237;57.996;56.290;2023-02-15T02:28:09;5.85;;;1.85;;
70663;SDS011;58237;57.996;56.290;2023-02-15T02:32:59;7.28;;;2.58;;
70663;SDS011;58237;57.996;56.290;2023-02-15T02:35:30;7.45;;;2.83;;
70663;SDS011;58237;57.996;56.290;2023-02-15T02:38:11;5.22;;;1.92;;
70663;SDS011;58237;57.996;56.290;2023-02-15T02:40:48;6.07;;;2.25;;
70663;SDS011;58237;57.996;56.290;2023-02-15T02:43:33;6.82;;;2.25;;
70663;SDS011;58237;57.996;56.290;2023-02-15T02:46:24;7.85;;;2.40;;
70663;SDS011;58237;57.996;56.290;2023-02-15T02:48:46;9.20;;;2.58;;
70663;SDS011;58237;57.996;56.290;2023-02-15T02:51:12;7.43;;;3.05;;
70663;SDS011;58237;57.996;56.290;2023-02-15T02:53:37;6.00;;;2.53;;
70663;SDS011;58237;57.996;56.290;2023-02-15T02:56:05;8.27;;;3.10;;
70663;SDS011;58237;57.996;56.290;2023-02-15T02:58:34;6.72;;;2.90;;
70663;SDS011;58237;57.996;56.290;2023-02-15T03:01:08;9.60;;;3.00;;
70663;SDS011;58237;57.996;56.290;2023-02-15T03:03:35;8.30;;;2.97;;
70663;SDS011;58237;57.996;56.290;2023-02-15T03:06:04;9.10;;;2.90;;
70663;SDS011;58237;57.996;56.290;2023-02-15T03:08:41;9.30;;;2.88;;
70663;SDS011;58237;57.996;56.290;2023-02-15T03:11:07;7.25;;;2.30;;
70663;SDS011;58237;57.996;56.290;2023-02-15T03:13:33;7.90;;;2.75;;
70663;SDS011;58237;57.996;56.290;2023-02-15T03:15:59;8.88;;;3.28;;
70663;SDS011;58237;57.996;56.290;2023-02-15T03:18:26;6.55;;;2.58;;
70663;SDS011;58237;57.996;56.290;2023-02-15T03:20:53;8.27;;;2.40;;
70663;SDS011;58237;57.996;56.290;2023-02-15T03:23:21;5.72;;;2.05;;
70663;SDS011;58237;57.996;56.290;2023-02-15T03:25:48;8.45;;;2.85;;
70663;SDS011;58237;57.996;56.290;2023-02-15T03:28:17;8.85;;;2.97;;
70663;SDS011;58237;57.996;56.290;2023-02-15T03:30:44;7.75;;;2.67;;
70663;SDS011;58237;57.996;56.290;2023-02-15T03:33:10;8.10;;;2.90;;
70663;SDS011;58237;57.996;56.290;2023-02-15T03:35:39;6.72;;;2.50;;
70663;SDS011;58237;57.996;56.290;2023-02-15T03:38:06;9.60;;;3.33;;
70663;SDS011;58237;57.996;56.290;2023-02-15T03:40:40;12.38;;;3.13;;
70663;SDS011;58237;57.996;56.290;2023-02-15T03:45:32;10.00;;;3.05;;
70663;SDS011;58237;57.996;56.290;2023-02-15T03:47:58;8.98;;;3.03;;
70663;SDS011;58237;57.996;56.290;2023-02-15T03:50:26;8.38;;;3.53;;
70663;SDS011;58237;57.996;56.290;2023-02-15T03:52:52;10.35;;;2.78;;
70663;SDS011;58237;57.996;56.290;2023-02-15T03:55:18;9.27;;;3.30;;
70663;SDS011;58237;57.996;56.290;2023-02-15T03:57:43;11.15;;;2.80;;
70663;SDS011;58237;57.996;56.290;2023-02-15T04:03:03;10.70;;;3.08;;
70663;SDS011;58237;57.996;56.290;2023-02-15T04:05:23;9.85;;;3.08;;
70663;SDS011;58237;57.996;56.290;2023-02-15T04:07:48;9.70;;;3.25;;
70663;SDS011;58237;57.996;56.290;2023-02-15T04:10:15;7.93;;;3.53;;
70663;SDS011;58237;57.996;56.290;2023-02-15T04:12:40;9.57;;;3.25;;
70663;SDS011;58237;57.996;56.290;2023-02-15T04:15:06;7.75;;;3.53;;
70663;SDS011;58237;57.996;56.290;2023-02-15T04:17:31;8.98;;;3.30;;
70663;SDS011;58237;57.996;56.290;2023-02-15T04:19:57;10.50;;;3.42;;
70663;SDS011;58237;57.996;56.290;2023-02-15T04:22:22;11.93;;;3.75;;
70663;SDS011;58237;57.996;56.290;2023-02-15T04:24:47;10.00;;;3.50;;
70663;SDS011;58237;57.996;56.290;2023-02-15T04:27:12;12.43;;;3.90;;
70663;SDS011;58237;57.996;56.290;2023-02-15T04:29:38;10.05;;;3.20;;
70663;SDS011;58237;57.996;56.290;2023-02-15T04:32:03;8.82;;;3.13;;
70663;SDS011;58237;57.996;56.290;2023-02-15T04:34:29;12.82;;;4.38;;
70663;SDS011;58237;57.996;56.290;2023-02-15T04:36:54;10.00;;;3.63;;
70663;SDS011;58237;57.996;56.290;2023-02-15T04:39:19;9.85;;;3.88;;
70663;SDS011;58237;57.996;56.290;2023-02-15T04:41:45;11.25;;;3.78;;
70663;SDS011;58237;57.996;56.290;2023-02-15T04:44:10;9.70;;;3.15;;
70663;SDS011;58237;57.996;56.290;2023-02-15T04:46:35;12.88;;;3.58;;
70663;SDS011;58237;57.996;56.290;2023-02-15T04:49:01;11.40;;;3.58;;
70663;SDS011;58237;57.996;56.290;2023-02-15T04:51:26;10.63;;;3.42;;
70663;SDS011;58237;57.996;56.290;2023-02-15T04:53:52;12.40;;;3.55;;
70663;SDS011;58237;57.996;56.290;2023-02-15T04:56:18;11.68;;;3.15;;
70663;SDS011;58237;57.996;56.290;2023-02-15T04:58:43;7.18;;;2.72;;
70663;SDS011;58237;57.996;56.290;2023-02-15T05:01:08;8.63;;;2.83;;
70663;SDS011;58237;57.996;56.290;2023-02-15T05:03:34;11.45;;;3.53;;
70663;SDS011;58237;57.996;56.290;2023-02-15T05:05:59;10.60;;;2.70;;
70663;SDS011;58237;57.996;56.290;2023-02-15T05:08:25;8.63;;;2.85;;
70663;SDS011;58237;57.996;56.290;2023-02-15T05:10:50;6.45;;;2.70;;
70663;SDS011;58237;57.996;56.290;2023-02-15T05:13:16;8.88;;;2.60;;
70663;SDS011;58237;57.996;56.290;2023-02-15T05:15:41;7.53;;;2.85;;
70663;SDS011;58237;57.996;56.290;2023-02-15T05:18:06;9.65;;;4.28;;
70663;SDS011;58237;57.996;56.290;2023-02-15T05:20:32;7.97;;;2.70;;
70663;SDS011;58237;57.996;56.290;2023-02-15T05:22:57;9.20;;;3.20;;
70663;SDS011;58237;57.996;56.290;2023-02-15T05:25:22;8.38;;;2.70;;
70663;SDS011;58237;57.996;56.290;2023-02-15T05:27:48;8.65;;;2.30;;
70663;SDS011;58237;57.996;56.290;2023-02-15T05:30:13;8.50;;;2.63;;
70663;SDS011;58237;57.996;56.290;2023-02-15T05:32:38;7.30;;;2.63;;
70663;SDS011;58237;57.996;56.290;2023-02-15T05:35:04;9.90;;;3.35;;
70663;SDS011;58237;57.996;56.290;2023-02-15T05:37:30;9.98;;;2.65;;
70663;SDS011;58237;57.996;56.290;2023-02-15T05:39:55;8.20;;;2.67;;
70663;SDS011;58237;57.996;56.290;2023-02-15T05:42:20;6.63;;;2.80;;
70663;SDS011;58237;57.996;56.290;2023-02-15T05:44:46;8.73;;;2.55;;
70663;SDS011;58237;57.996;56.290;2023-02-15T05:47:11;8.68;;;3.20;;
70663;SDS011;58237;57.996;56.290;2023-02-15T05:49:36;7.05;;;2.83;;
70663;SDS011;58237;57.996;56.290;2023-02-15T05:52:02;6.53;;;2.72;;
70663;SDS011;58237;57.996;56.290;2023-02-15T05:54:28;11.65;;;3.70;;
70663;SDS011;58237;57.996;56.290;2023-02-15T05:56:53;6.28;;;2.35;;
70663;SDS011;58237;57.996;56.290;2023-02-15T05:59:18;8.05;;;2.75;;
70663;SDS011;58237;57.996;56.290;2023-02-15T06:01:44;5.72;;;1.95;;
70663;SDS011;58237;57.996;56.290;2023-02-15T06:04:09;12.48;;;3.88;;
70663;SDS011;58237;57.996;56.290;2023-02-15T06:06:34;7.22;;;2.65;;
70663;SDS011;58237;57.996;56.290;2023-02-15T06:09:00;11.57;;;2.95;;
70663;SDS011;58237;57.996;56.290;2023-02-15T06:11:25;9.35;;;2.67;;
70663;SDS011;58237;57.996;56.290;2023-02-15T06:13:50;7.53;;;3.08;;
70663;SDS011;58237;57.996;56.290;2023-02-15T06:16:16;10.13;;;3.28;;
70663;SDS011;58237;57.996;56.290;2023-02-15T06:18:41;9.00;;;3.05;;
70663;SDS011;58237;57.996;56.290;2023-02-15T06:21:06;13.60;;;3.88;;
70663;SDS011;58237;57.996;56.290;2023-02-15T06:23:32;9.15;;;3.58;;
70663;SDS011;58237;57.996;56.290;2023-02-15T06:25:57;10.93;;;4.03;;
70663;SDS011;58237;57.996;56.290;2023-02-15T06:28:22;7.95;;;3.45;;
70663;SDS011;58237;57.996;56.290;2023-02-15T06:30:48;9.15;;;3.40;;
70663;SDS011;58237;57.996;56.290;2023-02-15T06:33:13;9.73;;;3.67;;
70663;SDS011;58237;57.996;56.290;2023-02-15T06:35:38;10.35;;;3.58;;
70663;SDS011;58237;57.996;56.290;2023-02-15T06:38:04;9.25;;;2.97;;
70663;SDS011;58237;57.996;56.290;2023-02-15T06:40:29;8.10;;;2.58;;
70663;SDS011;58237;57.996;56.290;2023-02-15T06:42:54;11.10;;;3.35;;
70663;SDS011;58237;57.996;56.290;2023-02-15T06:45:20;11.05;;;4.25;;
70663;SDS011;58237;57.996;56.290;2023-02-15T06:47:45;11.07;;;3.70;;
70663;SDS011;58237;57.996;56.290;2023-02-15T06:50:11;11.15;;;3.97;;
70663;SDS011;58237;57.996;56.290;2023-02-15T06:52:36;10.50;;;3.13;;
70663;SDS011;58237;57.996;56.290;2023-02-15T06:55:01;11.63;;;3.83;;
70663;SDS011;58237;57.996;56.290;2023-02-15T06:57:29;10.10;;;3.28;;
70663;SDS011;58237;57.996;56.290;2023-02-15T06:59:55;7.93;;;3.40;;
70663;SDS011;58237;57.996;56.290;2023-02-15T07:02:20;10.05;;;3.40;;
70663;SDS011;58237;57.996;56.290;2023-02-15T07:04:45;7.15;;;3.30;;
70663;SDS011;58237;57.996;56.290;2023-02-15T07:07:11;11.32;;;3.42;;
70663;SDS011;58237;57.996;56.290;2023-02-15T07:09:36;9.77;;;4.07;;
70663;SDS011;58237;57.996;56.290;2023-02-15T07:12:02;9.02;;;2.83;;
70663;SDS011;58237;57.996;56.290;2023-02-15T07:14:27;9.77;;;3.13;;
70663;SDS011;58237;57.996;56.290;2023-02-15T07:16:53;8.40;;;2.53;;
70663;SDS011;58237;57.996;56.290;2023-02-15T07:19:18;6.88;;;2.22;;
70663;SDS011;58237;57.996;56.290;2023-02-15T07:21:43;6.85;;;2.08;;
70663;SDS011;58237;57.996;56.290;2023-02-15T07:24:09;7.85;;;3.17;;
70663;SDS011;58237;57.996;56.290;2023-02-15T07:26:34;7.60;;;2.20;;
70663;SDS011;58237;57.996;56.290;2023-02-15T07:28:59;8.65;;;3.08;;
70663;SDS011;58237;57.996;56.290;2023-02-15T07:31:25;8.07;;;2.60;;
70663;SDS011;58237;57.996;56.290;2023-02-15T07:33:50;6.97;;;2.00;;
70663;SDS011;58237;57.996;56.290;2023-02-15T07:36:15;7.03;;;2.63;;
70663;SDS011;58237;57.996;56.290;2023-02-15T07:38:41;8.35;;;2.72;;
70663;SDS011;58237;57.996;56.290;2023-02-15T07:41:10;8.00;;;2.40;;
70663;SDS011;58237;57.996;56.290;2023-02-15T07:43:36;6.60;;;2.17;;
70663;SDS011;58237;57.996;56.290;2023-02-15T07:46:03;8.82;;;2.75;;
70663;SDS011;58237;57.996;56.290;2023-02-15T07:48:28;8.05;;;2.83;;
70663;SDS011;58237;57.996;56.290;2023-02-15T07:50:54;6.00;;;2.10;;
70663;SDS011;58237;57.996;56.290;2023-02-15T07:53:23;8.63;;;2.63;;
70663;SDS011;58237;57.996;56.290;2023-02-15T07:55:48;6.35;;;2.13;;
70663;SDS011;58237;57.996;56.290;2023-02-15T07:58:13;5.65;;;2.30;;
70663;SDS011;58237;57.996;56.290;2023-02-15T08:00:39;7.35;;;2.53;;
70663;SDS011;58237;57.996;56.290;2023-02-15T08:03:05;8.05;;;2.17;;
70663;SDS011;58237;57.996;56.290;2023-02-15T08:05:30;9.90;;;2.42;;
70663;SDS011;58237;57.996;56.290;2023-02-15T08:07:55;7.88;;;2.30;;
70663;SDS011;58237;57.996;56.290;2023-02-15T08:10:21;6.88;;;2.05;;
70663;SDS011;58237;57.996;56.290;2023-02-15T08:12:46;9.40;;;2.95;;
70663;SDS011;58237;57.996;56.290;2023-02-15T08:15:11;8.65;;;2.63;;
70663;SDS011;58237;57.996;56.290;2023-02-15T08:17:37;7.75;;;2.70;;
70663;SDS011;58237;57.996;56.290;2023-02-15T08:20:02;7.38;;;2.92;;
70663;SDS011;58237;57.996;56.290;2023-02-15T08:22:29;8.40;;;2.80;;
70663;SDS011;58237;57.996;56.290;2023-02-15T08:24:54;7.05;;;2.50;;
70663;SDS011;58237;57.996;56.290;2023-02-15T08:27:19;3.97;;;1.58;;
70663;SDS011;58237;57.996;56.290;2023-02-15T08:29:45;6.72;;;2.40;;
70663;SDS011;58237;57.996;56.290;2023-02-15T08:32:11;7.32;;;2.97;;
70663;SDS011;58237;57.996;56.290;2023-02-15T08:34:40;8.65;;;2.58;;
70663;SDS011;58237;57.996;56.290;2023-02-15T08:37:06;7.32;;;2.10;;
70663;SDS011;58237;57.996;56.290;2023-02-15T08:39:31;9.45;;;2.47;;
70663;SDS011;58237;57.996;56.290;2023-02-15T08:41:57;6.55;;;2.65;;
70663;SDS011;58237;57.996;56.290;2023-02-15T08:44:22;10.63;;;2.70;;
70663;SDS011;58237;57.996;56.290;2023-02-15T08:46:48;9.75;;;2.72;;
70663;SDS011;58237;57.996;56.290;2023-02-15T08:49:20;8.05;;;2.10;;
70663;SDS011;58237;57.996;56.290;2023-02-15T08:51:47;8.20;;;2.47;;
70663;SDS011;58237;57.996;56.290;2023-02-15T08:54:13;10.35;;;2.75;;
70663;SDS011;58237;57.996;56.290;2023-02-15T08:56:39;7.18;;;2.58;;
70663;SDS011;58237;57.996;56.290;2023-02-15T08:59:06;5.57;;;1.90;;
70663;SDS011;58237;57.996;56.290;2023-02-15T09:01:33;6.60;;;2.50;;
70663;SDS011;58237;57.996;56.290;2023-02-15T09:03:59;10.73;;;2.83;;
70663;SDS011;58237;57.996;56.290;2023-02-15T09:06:28;6.45;;;2.58;;
70663;SDS011;58237;57.996;56.290;2023-02-15T09:08:54;8.77;;;2.30;;
70663;SDS011;58237;57.996;56.290;2023-02-15T09:11:24;4.95;;;1.75;;
70663;SDS011;58237;57.996;56.290;2023-02-15T09:13:50;6.95;;;2.28;;
70663;SDS011;58237;57.996;56.290;2023-02-15T09:16:16;4.50;;;2.08;;
70663;SDS011;58237;57.996;56.290;2023-02-15T09:18:42;6.53;;;1.98;;
70663;SDS011;58237;57.996;56.290;2023-02-15T09:21:08;6.60;;;2.63;;
70663;SDS011;58237;57.996;56.290;2023-02-15T09:23:34;8.98;;;2.80;;
70663;SDS011;58237;57.996;56.290;2023-02-15T09:26:04;5.88;;;1.95;;
70663;SDS011;58237;57.996;56.290;2023-02-15T09:28:29;7.30;;;2.25;;
70663;SDS011;58237;57.996;56.290;2023-02-15T09:30:55;6.93;;;2.25;;
70663;SDS011;58237;57.996;56.290;2023-02-15T09:33:20;7.30;;;2.08;;
70663;SDS011;58237;57.996;56.290;2023-02-15T09:35:46;8.48;;;2.33;;
70663;SDS011;58237;57.996;56.290;2023-02-15T09:38:11;7.97;;;2.10;;
70663;SDS011;58237;57.996;56.290;2023-02-15T09:40:38;6.72;;;2.00;;
70663;SDS011;58237;57.996;56.290;2023-02-15T09:43:14;7.63;;;1.50;;
70663;SDS011;58237;57.996;56.290;2023-02-15T09:50:56;6.78;;;2.10;;
70663;SDS011;58237;57.996;56.290;2023-02-15T09:56:14;5.13;;;1.60;;
70663;SDS011;58237;57.996;56.290;2023-02-15T10:24:58;5.80;;;1.75;;
70663;SDS011;58237;57.996;56.290;2023-02-15T10:27:28;4.47;;;1.92;;
70663;SDS011;58237;57.996;56.290;2023-02-15T10:30:03;4.30;;;1.50;;
70663;SDS011;58237;57.996;56.290;2023-02-15T10:32:32;8.00;;;1.92;;
70663;SDS011;58237;57.996;56.290;2023-02-15T10:35:15;7.68;;;2.25;;
70663;SDS011;58237;57.996;56.290;2023-02-15T10:47:51;8.77;;;1.98;;
70663;SDS011;58237;57.996;56.290;2023-02-15T10:50:23;6.03;;;1.70;;
70663;SDS011;58237;57.996;56.290;2023-02-15T10:53:03;5.28;;;1.70;;
70663;SDS011;58237;57.996;56.290;2023-02-15T11:04:09;4.38;;;1.25;;
70663;SDS011;58237;57.996;56.290;2023-02-15T11:06:13;3.95;;;1.25;;
70663;SDS011;58237;57.996;56.290;2023-02-15T11:08:40;5.13;;;1.50;;
70663;SDS011;58237;57.996;56.290;2023-02-15T11:11:09;4.60;;;1.52;;
70663;SDS011;58237;57.996;56.290;2023-02-15T11:13:39;4.40;;;1.42;;
70663;SDS011;58237;57.996;56.290;2023-02-15T11:18:43;2.47;;;1.30;;
70663;SDS011;58237;57.996;56.290;2023-02-15T11:23:54;7.18;;;2.30;;
70663;SDS011;58237;57.996;56.290;2023-02-15T11:31:32;4.30;;;1.63;;
70663;SDS011;58237;57.996;56.290;2023-02-15T11:34:02;6.15;;;1.80;;
70663;SDS011;58237;57.996;56.290;2023-02-15T11:36:33;6.80;;;1.77;;
70663;SDS011;58237;57.996;56.290;2023-02-15T11:39:05;6.45;;;1.95;;
70663;SDS011;58237;57.996;56.290;2023-02-15T11:46:24;5.93;;;2.05;;
70663;SDS011;58237;57.996;56.290;2023-02-15T11:48:49;6.03;;;1.60;;
70663;SDS011;58237;57.996;56.290;2023-02-15T11:51:16;4.70;;;1.88;;
70663;SDS011;58237;57.996;56.290;2023-02-15T11:53:41;6.70;;;1.90;;
70663;SDS011;58237;57.996;56.290;2023-02-15T11:56:12;4.90;;;1.60;;
70663;SDS011;58237;57.996;56.290;2023-02-15T12:01:18;7.10;;;2.17;;
70663;SDS011;58237;57.996;56.290;2023-02-15T12:03:52;5.97;;;1.90;;
70663;SDS011;58237;57.996;56.290;2023-02-15T12:06:25;4.60;;;1.70;;
70663;SDS011;58237;57.996;56.290;2023-02-15T12:09:16;5.18;;;1.35;;
70663;SDS011;58237;57.996;56.290;2023-02-15T12:11:38;11.50;;;2.47;;
70663;SDS011;58237;57.996;56.290;2023-02-15T12:14:05;8.02;;;2.22;;
70663;SDS011;58237;57.996;56.290;2023-02-15T12:16:32;5.55;;;1.83;;
70663;SDS011;58237;57.996;56.290;2023-02-15T12:18:58;7.05;;;2.00;;
70663;SDS011;58237;57.996;56.290;2023-02-15T12:21:26;7.00;;;2.20;;
70663;SDS011;58237;57.996;56.290;2023-02-15T12:23:52;7.03;;;2.35;;
70663;SDS011;58237;57.996;56.290;2023-02-15T12:26:32;6.68;;;1.95;;
70663;SDS011;58237;57.996;56.290;2023-02-15T12:29:02;6.68;;;1.77;;
70663;SDS011;58237;57.996;56.290;2023-02-15T12:31:32;5.72;;;2.08;;
70663;SDS011;58237;57.996;56.290;2023-02-15T12:33:59;7.30;;;2.38;;
70663;SDS011;58237;57.996;56.290;2023-02-15T12:36:29;9.45;;;2.58;;
70663;SDS011;58237;57.996;56.290;2023-02-15T12:39:05;7.72;;;2.67;;
70663;SDS011;58237;57.996;56.290;2023-02-15T12:41:44;6.05;;;2.45;;
70663;SDS011;58237;57.996;56.290;2023-02-15T12:46:38;6.70;;;2.20;;
70663;SDS011;58237;57.996;56.290;2023-02-15T12:54:30;8.18;;;2.75;;
70663;SDS011;58237;57.996;56.290;2023-02-15T12:56:56;5.75;;;2.08;;
70663;SDS011;58237;57.996;56.290;2023-02-15T12:59:22;7.28;;;2.45;;
70663;SDS011;58237;57.996;56.290;2023-02-15T13:01:47;8.65;;;2.80;;
70663;SDS011;58237;57.996;56.290;2023-02-15T13:04:26;7.43;;;2.42;;
70663;SDS011;58237;57.996;56.290;2023-02-15T13:06:53;6.22;;;2.10;;
70663;SDS011;58237;57.996;56.290;2023-02-15T13:09:20;6.45;;;2.45;;
70663;SDS011;58237;57.996;56.290;2023-02-15T13:11:47;6.22;;;3.25;;
70663;SDS011;58237;57.996;56.290;2023-02-15T13:14:17;7.22;;;2.47;;
70663;SDS011;58237;57.996;56.290;2023-02-15T13:16:44;6.30;;;2.10;;
70663;SDS011;58237;57.996;56.290;2023-02-15T13:19:12;7.20;;;2.00;;
70663;SDS011;58237;57.996;56.290;2023-02-15T13:21:39;7.05;;;2.10;;
70663;SDS011;58237;57.996;56.290;2023-02-15T13:24:18;9.68;;;2.50;;
70663;SDS011;58237;57.996;56.290;2023-02-15T13:26:45;6.40;;;2.42;;
70663;SDS011;58237;57.996;56.290;2023-02-15T13:29:24;7.45;;;2.55;;
70663;SDS011;58237;57.996;56.290;2023-02-15T13:31:50;7.85;;;2.28;;
70663;SDS011;58237;57.996;56.290;2023-02-15T13:34:18;10.13;;;2.83;;
70663;SDS011;58237;57.996;56.290;2023-02-15T13:39:54;7.55;;;2.40;;
70663;SDS011;58237;57.996;56.290;2023-02-15T13:42:11;7.05;;;2.40;;
70663;SDS011;58237;57.996;56.290;2023-02-15T13:47:13;8.00;;;2.63;;
70663;SDS011;58237;57.996;56.290;2023-02-15T13:49:54;9.95;;;2.88;;
70663;SDS011;58237;57.996;56.290;2023-02-15T13:52:25;8.88;;;3.00;;
70663;SDS011;58237;57.996;56.290;2023-02-15T14:10:30;8.90;;;2.88;;
70663;SDS011;58237;57.996;56.290;2023-02-15T14:21:01;10.98;;;3.70;;
70663;SDS011;58237;57.996;56.290;2023-02-15T14:26:18;9.95;;;3.72;;
70663;SDS011;58237;57.996;56.290;2023-02-15T14:31:14;10.98;;;4.22;;
70663;SDS011;58237;57.996;56.290;2023-02-15T14:33:41;10.93;;;4.00;;
70663;SDS011;58237;57.996;56.290;2023-02-15T14:36:09;11.93;;;4.60;;
70663;SDS011;58237;57.996;56.290;2023-02-15T14:49:44;13.13;;;4.35;;
70663;SDS011;58237;57.996;56.290;2023-02-15T14:56:41;11.77;;;4.53;;
70663;SDS011;58237;57.996;56.290;2023-02-15T14:59:14;14.50;;;4.35;;
70663;SDS011;58237;57.996;56.290;2023-02-15T15:01:40;13.30;;;5.63;;
70663;SDS011;58237;57.996;56.290;2023-02-15T15:04:06;10.65;;;3.90;;
70663;SDS011;58237;57.996;56.290;2023-02-15T15:06:33;11.52;;;4.22;;
70663;SDS011;58237;57.996;56.290;2023-02-15T15:11:52;14.77;;;4.93;;
70663;SDS011;58237;57.996;56.290;2023-02-15T15:14:36;17.98;;;4.68;;
70663;SDS011;58237;57.996;56.290;2023-02-15T15:17:03;14.38;;;3.95;;
70663;SDS011;58237;57.996;56.290;2023-02-15T15:22:28;12.38;;;3.78;;
70663;SDS011;58237;57.996;56.290;2023-02-15T15:24:54;9.15;;;3.63;;
70663;SDS011;58237;57.996;56.290;2023-02-15T15:27:37;13.93;;;4.47;;
70663;SDS011;58237;57.996;56.290;2023-02-15T15:30:10;12.75;;;4.75;;
70663;SDS011;58237;57.996;56.290;2023-02-15T15:32:53;16.33;;;4.75;;
70663;SDS011;58237;57.996;56.290;2023-02-15T15:40:39;16.45;;;4.35;;
70663;SDS011;58237;57.996;56.290;2023-02-15T15:50:46;11.48;;;4.60;;
70663;SDS011;58237;57.996;56.290;2023-02-15T15:53:22;10.48;;;4.07;;
70663;SDS011;58237;57.996;56.290;2023-02-15T15:55:49;11.48;;;3.97;;
70663;SDS011;58237;57.996;56.290;2023-02-15T15:58:15;10.65;;;3.85;;
70663;SDS011;58237;57.996;56.290;2023-02-15T16:00:51;8.20;;;3.13;;
70663;SDS011;58237;57.996;56.290;2023-02-15T16:03:24;9.95;;;4.05;;
70663;SDS011;58237;57.996;56.290;2023-02-15T16:05:50;12.38;;;3.15;;
70663;SDS011;58237;57.996;56.290;2023-02-15T16:08:15;11.57;;;4.30;;
70663;SDS011;58237;57.996;56.290;2023-02-15T16:10:50;9.98;;;3.38;;
70663;SDS011;58237;57.996;56.290;2023-02-15T16:13:15;15.00;;;3.88;;
70663;SDS011;58237;57.996;56.290;2023-02-15T16:15:45;9.38;;;3.20;;
70663;SDS011;58237;57.996;56.290;2023-02-15T16:18:13;9.75;;;3.35;;
70663;SDS011;58237;57.996;56.290;2023-02-15T16:20:39;11.65;;;3.35;;
70663;SDS011;58237;57.996;56.290;2023-02-15T16:28:18;13.52;;;4.30;;
70663;SDS011;58237;57.996;56.290;2023-02-15T16:30:44;14.63;;;4.25;;
70663;SDS011;58237;57.996;56.290;2023-02-15T16:33:13;8.40;;;3.33;;
70663;SDS011;58237;57.996;56.290;2023-02-15T16:35:39;8.40;;;3.65;;
70663;SDS011;58237;57.996;56.290;2023-02-15T16:38:08;14.32;;;4.10;;
70663;SDS011;58237;57.996;56.290;2023-02-15T16:43:06;8.73;;;3.40;;
70663;SDS011;58237;57.996;56.290;2023-02-15T16:45:35;9.27;;;2.83;;
70663;SDS011;58237;57.996;56.290;2023-02-15T16:48:01;10.93;;;2.80;;
70663;SDS011;58237;57.996;56.290;2023-02-15T16:50:33;10.82;;;3.33;;
70663;SDS011;58237;57.996;56.290;2023-02-15T16:52:59;8.73;;;2.70;;
70663;SDS011;58237;57.996;56.290;2023-02-15T16:55:30;6.97;;;2.42;;
70663;SDS011;58237;57.996;56.290;2023-02-15T16:57:59;6.15;;;2.40;;
70663;SDS011;58237;57.996;56.290;2023-02-15T17:00:26;12.30;;;3.28;;
70663;SDS011;58237;57.996;56.290;2023-02-15T17:02:54;10.95;;;3.33;;
70663;SDS011;58237;57.996;56.290;2023-02-15T17:05:22;8.90;;;3.63;;
70663;SDS011;58237;57.996;56.290;2023-02-15T17:07:49;9.52;;;3.33;;
70663;SDS011;58237;57.996;56.290;2023-02-15T17:10:29;9.27;;;3.25;;
70663;SDS011;58237;57.996;56.290;2023-02-15T17:12:57;9.68;;;2.63;;
70663;SDS011;58237;57.996;56.290;2023-02-15T17:15:35;8.48;;;3.05;;
70663;SDS011;58237;57.996;56.290;2023-02-15T17:18:03;9.65;;;3.15;;
70663;SDS011;58237;57.996;56.290;2023-02-15T17:20:29;9.13;;;2.88;;
70663;SDS011;58237;57.996;56.290;2023-02-15T17:22:54;8.18;;;3.25;;